createdAt,value
2018-03-26T00:00:12.402Z,45.63
2018-03-26T00:02:38.395Z,45.97
2018-03-26T00:05:04.488Z,47.37
2018-03-26T00:07:30.600Z,44.70
2018-03-26T00:09:57.331Z,45.70
2018-03-26T00:12:23.337Z,42.30
2018-03-26T00:14:49.369Z,46.13
2018-03-26T00:17:15.398Z,46.50
2018-03-26T00:19:41.385Z,45.27
2018-03-26T00:22:08.159Z,46.93
2018-03-26T00:24:34.191Z,47.70
2018-03-26T00:27:01.002Z,49.17
2018-03-26T00:29:27.007Z,48.10
2018-03-26T00:31:52.994Z,47.63
2018-03-26T00:34:19.756Z,50.37
2018-03-26T00:36:46.502Z,50.33
2018-03-26T00:39:13.241Z,51.30
2018-03-26T00:41:39.266Z,54.20
2018-03-26T00:44:05.258Z,55.47
2018-03-26T00:46:31.284Z,55.40
2018-03-26T00:48:57.333Z,54.90
2018-03-26T00:51:23.314Z,56.57
2018-03-26T00:53:49.534Z,54.90
2018-03-26T00:56:15.568Z,49.70
2018-03-26T00:58:41.605Z,56.20
2018-03-26T01:01:07.639Z,53.93
2018-03-26T01:03:33.644Z,54.03
2018-03-26T01:05:59.699Z,55.10
2018-03-26T01:08:25.706Z,52.67
2018-03-26T01:10:52.454Z,53.60
2018-03-26T01:13:19.222Z,56.70
2018-03-26T01:15:45.278Z,53.17
2018-03-26T01:18:11.295Z,47.33
2018-03-26T01:20:37.298Z,56.83
2018-03-26T01:23:03.314Z,53.30
2018-03-26T01:25:29.316Z,54.77
2018-03-26T01:27:55.342Z,57.10
2018-03-26T01:30:21.352Z,55.00
2018-03-26T01:32:48.111Z,55.87
2018-03-26T01:35:14.846Z,58.63
2018-03-26T01:37:40.837Z,57.80
2018-03-26T01:40:06.843Z,57.13
2018-03-26T01:42:33.594Z,56.10
2018-03-26T01:44:59.668Z,53.77
2018-03-26T01:47:25.711Z,53.37
2018-03-26T01:49:51.700Z,54.20
2018-03-26T01:52:18.454Z,52.70
2018-03-26T01:54:45.185Z,53.00
2018-03-26T01:57:11.170Z,51.03
2018-03-26T01:59:37.167Z,52.47
2018-03-26T02:02:03.270Z,49.60
2018-03-26T02:04:29.326Z,47.53
2018-03-26T02:06:55.330Z,45.37
2018-03-26T02:09:21.334Z,47.50
2018-03-26T02:11:47.344Z,45.90
2018-03-26T02:14:13.355Z,43.70
2018-03-26T02:16:39.389Z,43.90
2018-03-26T02:19:05.514Z,41.93
2018-03-26T02:21:31.508Z,43.90
2018-03-26T02:23:58.267Z,43.50
2018-03-26T02:26:24.258Z,45.13
2018-03-26T02:28:50.242Z,45.30
2018-03-26T02:31:17.004Z,43.87
2018-03-26T02:33:43.006Z,40.90
2018-03-26T02:36:09.008Z,40.40
2018-03-26T02:38:35.000Z,41.80
2018-03-26T02:41:01.765Z,45.00
2018-03-26T02:43:27.771Z,44.40
2018-03-26T02:45:54.545Z,40.00
2018-03-26T02:48:20.563Z,39.03
2018-03-26T02:50:47.306Z,39.47
2018-03-26T02:53:13.578Z,40.20
2018-03-26T02:55:40.340Z,40.17
2018-03-26T02:58:06.342Z,38.27
2018-03-26T03:00:32.370Z,36.63
2018-03-26T03:02:59.174Z,37.93
2018-03-26T03:05:25.179Z,36.40
2018-03-26T03:07:51.921Z,31.87
2018-03-26T03:10:17.966Z,32.53
2018-03-26T03:12:44.005Z,30.87
2018-03-26T03:15:10.749Z,30.13
2018-03-26T03:17:37.499Z,30.33
2018-03-26T03:20:03.539Z,28.03
2018-03-26T03:22:30.296Z,27.37
2018-03-26T03:24:57.064Z,27.40
2018-03-26T03:27:23.804Z,23.27
2018-03-26T03:29:50.560Z,24.00
2018-03-26T03:32:17.361Z,24.90
2018-03-26T03:34:43.389Z,23.10
2018-03-26T03:37:09.388Z,20.63
2018-03-26T03:39:36.180Z,17.53
2018-03-26T03:42:02.263Z,18.13
2018-03-26T03:44:28.279Z,18.00
2018-03-26T03:46:54.323Z,17.30
2018-03-26T03:49:20.328Z,17.53
2018-03-26T03:51:46.346Z,19.33
2018-03-26T03:54:12.361Z,20.10
2018-03-26T03:56:39.117Z,20.63
2018-03-26T03:59:05.881Z,22.43
2018-03-26T04:01:32.632Z,20.93
2018-03-26T04:03:59.775Z,21.80
2018-03-26T04:06:26.616Z,18.50
2018-03-26T04:08:52.628Z,21.97
2018-03-26T04:11:18.666Z,21.60
2018-03-26T04:13:44.666Z,22.20
2018-03-26T04:16:10.659Z,21.63
2018-03-26T04:18:36.718Z,21.63
2018-03-26T04:21:03.503Z,24.00
2018-03-26T04:23:29.500Z,21.00
2018-03-26T04:25:55.552Z,22.80
2018-03-26T04:28:22.305Z,22.30
2018-03-26T04:30:49.057Z,23.20
2018-03-26T04:33:15.827Z,18.27
2018-03-26T04:35:42.572Z,18.90
2018-03-26T04:38:09.310Z,16.50
2018-03-26T04:40:36.095Z,18.60
2018-03-26T04:43:02.241Z,18.07
2018-03-26T04:45:28.541Z,18.17
2018-03-26T04:47:54.563Z,17.87
2018-03-26T04:50:20.573Z,18.47
2018-03-26T04:52:46.571Z,19.00
2018-03-26T04:55:13.332Z,17.70
2018-03-26T04:57:39.331Z,15.90
2018-03-26T05:00:05.354Z,16.43
2018-03-26T05:02:31.407Z,13.07
2018-03-26T05:04:57.424Z,14.70
2018-03-26T05:07:23.424Z,14.40
2018-03-26T05:09:49.451Z,13.10
2018-03-26T05:12:15.470Z,12.23
2018-03-26T05:14:42.254Z,14.50
2018-03-26T05:17:08.291Z,14.03
2018-03-26T05:19:34.300Z,14.30
2018-03-26T05:22:01.055Z,11.97
2018-03-26T05:24:27.796Z,12.97
2018-03-26T05:26:53.808Z,12.93
2018-03-26T05:29:19.799Z,10.80
2018-03-26T05:31:45.923Z,11.80
2018-03-26T05:34:12.680Z,11.10
2018-03-26T05:36:38.703Z,11.13
2018-03-26T05:39:05.483Z,9.83
2018-03-26T05:41:31.511Z,9.30
2018-03-26T05:43:57.511Z,9.97
2018-03-26T05:46:23.518Z,8.87
2018-03-26T05:48:49.522Z,10.20
2018-03-26T05:51:15.731Z,10.90
2018-03-26T05:53:42.498Z,9.93
2018-03-26T05:56:09.294Z,11.30
2018-03-26T05:58:35.324Z,11.63
2018-03-26T06:01:01.343Z,11.60
2018-03-26T06:03:27.383Z,11.00
2018-03-26T06:05:53.422Z,10.67
2018-03-26T06:08:19.427Z,10.10
2018-03-26T06:10:46.289Z,9.33
2018-03-26T06:13:13.028Z,9.03
2018-03-26T06:15:39.051Z,8.33
2018-03-26T06:18:05.115Z,7.13
2018-03-26T06:20:31.917Z,7.50
2018-03-26T06:22:57.940Z,8.37
2018-03-26T06:25:23.985Z,5.93
2018-03-26T06:27:50.016Z,6.83
2018-03-26T06:30:22.993Z,6.80
2018-03-26T06:32:49.035Z,7.97
2018-03-26T06:35:15.075Z,6.57
2018-03-26T06:37:47.122Z,6.60
2018-03-26T06:40:13.875Z,5.70
2018-03-26T06:42:40.808Z,6.40
2018-03-26T06:45:06.904Z,5.90
2018-03-26T06:47:32.920Z,5.50
2018-03-26T06:49:59.052Z,5.63
2018-03-26T06:52:25.804Z,5.63
2018-03-26T06:54:52.583Z,6.20
2018-03-26T06:57:18.911Z,5.30
2018-03-26T06:59:45.652Z,5.07
2018-03-26T07:02:12.414Z,5.40
2018-03-26T07:04:39.461Z,5.43
2018-03-26T07:07:05.489Z,6.10
2018-03-26T07:09:31.515Z,5.67
2018-03-26T07:11:57.564Z,4.90
2018-03-26T07:14:23.603Z,6.30
2018-03-26T07:16:49.611Z,4.90
2018-03-26T07:19:15.662Z,5.20
2018-03-26T07:21:41.732Z,6.20
2018-03-26T07:24:07.728Z,5.70
2018-03-26T07:26:33.876Z,6.40
2018-03-26T07:28:59.903Z,6.70
2018-03-26T07:31:25.915Z,6.60
2018-03-26T07:33:51.938Z,7.13
2018-03-26T07:36:17.962Z,7.10
2018-03-26T07:38:43.971Z,6.23
2018-03-26T07:41:09.976Z,5.67
2018-03-26T07:43:36.010Z,6.20
2018-03-26T07:46:02.074Z,5.67
2018-03-26T07:48:28.091Z,5.17
2018-03-26T07:50:54.120Z,6.00
2018-03-26T07:53:20.154Z,7.30
2018-03-26T07:55:46.165Z,6.60
2018-03-26T07:58:12.191Z,6.63
2018-03-26T08:00:38.263Z,7.87
2018-03-26T08:03:04.270Z,6.47
2018-03-26T08:05:30.271Z,6.27
2018-03-26T08:07:57.044Z,6.13
2018-03-26T08:10:23.804Z,5.30
2018-03-26T08:12:49.847Z,4.53
2018-03-26T08:15:15.884Z,4.40
2018-03-26T08:17:41.903Z,4.10
2018-03-26T08:20:08.667Z,4.80
2018-03-26T08:22:34.668Z,4.07
2018-03-26T08:25:01.453Z,4.43
2018-03-26T08:27:27.503Z,3.80
2018-03-26T08:29:53.530Z,4.70
2018-03-26T08:32:19.568Z,4.67
2018-03-26T08:34:45.607Z,5.20
2018-03-26T08:37:11.628Z,4.30
2018-03-26T08:39:37.655Z,4.20
2018-03-26T08:42:04.422Z,4.50
2018-03-26T08:44:31.187Z,5.60
2018-03-26T08:46:57.328Z,5.47
2018-03-26T08:49:23.372Z,3.90
2018-03-26T08:51:49.375Z,4.57
2018-03-26T08:54:16.144Z,4.50
2018-03-26T08:56:42.152Z,4.70
2018-03-26T08:59:08.172Z,4.30
2018-03-26T09:01:34.229Z,5.03
2018-03-26T09:04:00.252Z,5.00
2018-03-26T09:06:26.250Z,5.47
2018-03-26T09:08:52.368Z,5.50
2018-03-26T09:11:18.376Z,4.47
2018-03-26T09:13:44.400Z,4.67
2018-03-26T09:16:10.443Z,4.60
2018-03-26T09:18:36.464Z,5.47
2018-03-26T09:21:02.495Z,4.30
2018-03-26T09:23:28.511Z,4.60
2018-03-26T09:25:54.550Z,3.50
2018-03-26T09:28:20.562Z,4.03
2018-03-26T09:30:53.516Z,4.27
2018-03-26T09:33:19.539Z,4.10
2018-03-26T09:35:45.566Z,3.30
2018-03-26T09:38:11.607Z,3.33
2018-03-26T09:40:37.654Z,4.33
2018-03-26T09:43:03.718Z,4.50
2018-03-26T09:45:30.502Z,3.90
2018-03-26T09:47:56.531Z,3.87
2018-03-26T09:50:22.563Z,4.53
2018-03-26T09:52:48.588Z,4.80
2018-03-26T09:55:15.345Z,5.37
2018-03-26T09:57:42.283Z,6.00
2018-03-26T10:00:08.295Z,5.10
2018-03-26T10:02:34.307Z,5.97
2018-03-26T10:05:00.625Z,5.97
2018-03-26T10:07:26.960Z,5.97
2018-03-26T10:09:53.708Z,7.17
2018-03-26T10:12:20.499Z,6.20
2018-03-26T10:14:46.524Z,5.20
2018-03-26T10:17:12.584Z,6.90
2018-03-26T10:19:38.623Z,5.47
2018-03-26T10:22:04.660Z,6.10
2018-03-26T10:24:30.718Z,6.40
2018-03-26T10:26:56.858Z,6.03
2018-03-26T10:29:22.884Z,5.47
2018-03-26T10:31:48.899Z,4.90
2018-03-26T10:34:14.974Z,5.30
2018-03-26T10:36:40.998Z,5.83
2018-03-26T10:39:07.007Z,4.90
2018-03-26T10:41:33.095Z,4.50
2018-03-26T10:43:59.873Z,4.93
2018-03-26T10:46:25.963Z,5.67
2018-03-26T10:48:52.021Z,4.20
2018-03-26T10:51:18.038Z,4.50
2018-03-26T10:53:44.069Z,5.73
2018-03-26T10:56:10.119Z,4.40
2018-03-26T10:58:36.191Z,4.70
2018-03-26T11:01:02.239Z,4.40
2018-03-26T11:03:28.270Z,5.07
2018-03-26T11:05:55.087Z,4.03
2018-03-26T11:08:21.544Z,4.10
2018-03-26T11:10:47.535Z,3.97
2018-03-26T11:13:13.612Z,5.00
2018-03-26T11:15:39.670Z,5.37
2018-03-26T11:18:05.689Z,4.97
2018-03-26T11:20:32.483Z,4.90
2018-03-26T11:22:58.636Z,5.40
2018-03-26T11:25:24.752Z,5.60
2018-03-26T11:27:50.758Z,5.30
2018-03-26T11:30:17.549Z,6.20
2018-03-26T11:32:43.602Z,5.53
2018-03-26T11:35:09.626Z,7.23
2018-03-26T11:37:35.647Z,7.03
2018-03-26T11:40:01.691Z,7.97
2018-03-26T11:42:27.680Z,6.97
2018-03-26T11:44:55.294Z,6.63
2018-03-26T11:47:21.304Z,5.40
2018-03-26T11:49:48.072Z,6.27
2018-03-26T11:52:14.895Z,6.23
2018-03-26T11:54:40.923Z,6.63
2018-03-26T11:57:06.964Z,6.73
2018-03-26T11:59:33.312Z,6.30
2018-03-26T12:01:59.332Z,5.77
2018-03-26T12:04:25.355Z,5.87
2018-03-26T12:06:51.405Z,6.93
2018-03-26T12:09:17.431Z,7.37
2018-03-26T12:11:43.453Z,6.00
2018-03-26T12:14:09.660Z,5.70
2018-03-26T12:16:35.707Z,6.20
2018-03-26T12:19:01.751Z,5.57
2018-03-26T12:21:28.181Z,5.23
2018-03-26T12:24:07.380Z,5.20
2018-03-26T12:26:33.435Z,5.63
2018-03-26T12:29:11.903Z,5.40
2018-03-26T12:31:37.941Z,6.27
2018-03-26T12:37:04.717Z,5.67
2018-03-26T12:39:31.502Z,4.83
2018-03-26T12:41:57.531Z,5.67
2018-03-26T12:44:35.993Z,6.60
2018-03-26T12:47:02.024Z,5.43
2018-03-26T12:49:28.047Z,4.97
2018-03-26T12:52:06.417Z,5.00
2018-03-26T12:54:33.207Z,4.83
2018-03-26T12:57:11.787Z,6.00
2018-03-26T12:59:37.821Z,5.00
2018-03-26T13:02:16.303Z,5.20
2018-03-26T13:04:42.372Z,5.53
2018-03-26T13:07:08.394Z,6.20
2018-03-26T13:09:34.462Z,6.07
2018-03-26T13:12:00.503Z,6.50
2018-03-26T13:14:26.733Z,5.47
2018-03-26T13:16:53.016Z,6.00
2018-03-26T13:19:19.842Z,5.63
2018-03-26T13:21:46.612Z,5.23
2018-03-26T13:24:12.854Z,6.03
2018-03-26T13:26:38.860Z,5.73
2018-03-26T13:29:04.927Z,7.10
2018-03-26T13:31:32.526Z,6.30
2018-03-26T13:33:58.540Z,6.50
2018-03-26T13:36:25.311Z,7.33
2018-03-26T13:38:52.087Z,6.40
2018-03-26T13:41:18.157Z,6.63
2018-03-26T13:43:44.211Z,7.03
2018-03-26T13:46:10.368Z,5.90
2018-03-26T13:48:37.163Z,6.50
2018-03-26T13:51:10.352Z,5.97
2018-03-26T13:53:36.396Z,6.07
2018-03-26T13:56:02.451Z,6.40
2018-03-26T13:58:28.504Z,5.97
2018-03-26T14:00:54.527Z,6.53
2018-03-26T14:03:20.559Z,6.07
2018-03-26T14:05:46.612Z,6.10
2018-03-26T14:08:24.826Z,6.70
2018-03-26T14:11:03.341Z,5.90
2018-03-26T14:13:41.576Z,5.80
2018-03-26T14:16:20.375Z,5.90
2018-03-26T14:18:46.397Z,6.00
2018-03-26T14:21:13.167Z,6.40
2018-03-26T14:23:39.217Z,5.73
2018-03-26T14:26:05.256Z,7.27
2018-03-26T14:28:31.293Z,6.13
2018-03-26T14:30:58.897Z,6.83
2018-03-26T14:33:24.920Z,6.00
2018-03-26T14:35:50.975Z,6.33
2018-03-26T14:38:17.060Z,5.90
2018-03-26T14:40:43.074Z,5.67
2018-03-26T14:43:09.979Z,7.23
2018-03-26T14:45:36.895Z,6.20
2018-03-26T14:48:03.696Z,6.13
2018-03-26T14:50:29.722Z,6.50
2018-03-26T14:52:55.756Z,5.97
2018-03-26T14:55:21.794Z,5.83
2018-03-26T14:57:47.848Z,4.80
2018-03-26T15:00:13.911Z,4.40
2018-03-26T15:02:39.943Z,3.80
2018-03-26T15:05:05.967Z,4.10
2018-03-26T15:07:32.363Z,3.83
2018-03-26T15:09:58.387Z,2.93
2018-03-26T15:12:25.172Z,3.27
2018-03-26T15:14:51.204Z,3.00
2018-03-26T15:17:17.243Z,3.00
2018-03-26T15:19:43.244Z,3.13
2018-03-26T15:22:10.020Z,2.63
2018-03-26T15:24:36.348Z,2.40
2018-03-26T15:27:03.156Z,2.50
2018-03-26T15:29:29.209Z,3.90
2018-03-26T15:31:55.259Z,5.30
2018-03-26T15:34:21.267Z,4.60
2018-03-26T15:36:47.311Z,5.07
2018-03-26T15:39:14.103Z,3.20
2018-03-26T15:41:40.847Z,4.30
2018-03-26T15:44:06.957Z,5.10
2018-03-26T15:46:33.052Z,4.00
2018-03-26T15:48:59.097Z,3.30
2018-03-26T15:51:25.119Z,3.87
2018-03-26T15:53:51.168Z,3.63
2018-03-26T15:56:17.183Z,3.83
2018-03-26T15:58:43.978Z,3.13
2018-03-26T16:01:10.033Z,3.10
2018-03-26T16:03:36.071Z,3.90
2018-03-26T16:06:02.125Z,3.53
2018-03-26T16:08:28.163Z,3.53
2018-03-26T16:10:54.228Z,3.57
2018-03-26T16:13:20.270Z,4.20
2018-03-26T16:15:46.292Z,5.87
2018-03-26T16:18:13.088Z,6.17
2018-03-26T16:20:39.099Z,5.13
2018-03-26T16:23:05.157Z,4.20
2018-03-26T16:25:31.240Z,4.10
2018-03-26T16:27:57.301Z,4.70
2018-03-26T16:30:23.334Z,3.63
2018-03-26T16:32:50.111Z,3.67
2018-03-26T16:35:16.107Z,4.47
2018-03-26T16:37:43.050Z,4.57
2018-03-26T16:40:09.112Z,3.87
2018-03-26T16:42:41.869Z,3.30
2018-03-26T16:45:07.947Z,3.30
2018-03-26T16:47:34.746Z,3.37
2018-03-26T16:50:00.875Z,4.70
2018-03-26T16:52:26.952Z,5.53
2018-03-26T16:54:52.979Z,4.13
2018-03-26T16:57:19.816Z,3.40
2018-03-26T16:59:45.891Z,4.27
2018-03-26T17:02:11.915Z,3.43
2018-03-26T17:04:37.939Z,4.00
2018-03-26T17:07:03.963Z,3.77
2018-03-26T17:09:30.018Z,4.77
2018-03-26T17:11:56.066Z,4.10
2018-03-26T17:14:22.087Z,4.00
2018-03-26T17:16:48.965Z,4.20
2018-03-26T17:19:15.799Z,3.73
2018-03-26T17:21:41.860Z,7.17
2018-03-26T17:24:07.895Z,6.20
2018-03-26T17:26:34.046Z,5.27
2018-03-26T17:29:01.887Z,5.40
2018-03-26T17:31:27.934Z,3.27
2018-03-26T17:33:53.975Z,4.43
2018-03-26T17:36:20.030Z,3.80
2018-03-26T17:38:46.823Z,4.80
2018-03-26T17:41:12.863Z,4.30
2018-03-26T17:43:38.917Z,4.47
2018-03-26T17:46:05.068Z,6.23
2018-03-26T17:48:31.138Z,7.87
2018-03-26T17:50:57.928Z,6.13
2018-03-26T17:53:24.086Z,3.23
2018-03-26T17:55:50.122Z,3.17
2018-03-26T17:58:16.160Z,5.80
2018-03-26T18:00:42.195Z,4.30
2018-03-26T18:03:08.243Z,4.83
2018-03-26T18:05:34.314Z,4.10
2018-03-26T18:08:01.089Z,3.70
2018-03-26T18:10:27.127Z,4.73
2018-03-26T18:12:53.176Z,4.50
2018-03-26T18:15:19.225Z,4.10
2018-03-26T18:17:45.264Z,3.50
2018-03-26T18:20:11.301Z,3.33
2018-03-26T18:22:37.324Z,3.33
2018-03-26T18:25:03.396Z,5.13
2018-03-26T18:27:29.411Z,5.77
2018-03-26T18:29:55.465Z,6.00
2018-03-26T18:32:21.507Z,4.50
2018-03-26T18:34:48.287Z,6.50
2018-03-26T18:37:15.106Z,7.90
2018-03-26T18:39:41.161Z,6.27
2018-03-26T18:42:14.101Z,5.47
2018-03-26T18:44:40.118Z,6.83
2018-03-26T18:47:06.903Z,9.07
2018-03-26T18:49:32.964Z,10.33
2018-03-26T18:51:59.003Z,9.50
2018-03-26T18:54:25.052Z,12.70
2018-03-26T18:56:51.101Z,12.23
2018-03-26T18:59:17.131Z,11.27
2018-03-26T19:01:43.151Z,10.40
2018-03-26T19:04:09.448Z,11.43
2018-03-26T19:06:35.475Z,12.47
2018-03-26T19:09:02.284Z,10.67
2018-03-26T19:11:28.346Z,11.70
2018-03-26T19:13:54.399Z,11.60
2018-03-26T19:16:21.203Z,13.37
2018-03-26T19:18:47.995Z,12.63
2018-03-26T19:21:14.035Z,14.57
2018-03-26T19:23:40.081Z,13.63
2018-03-26T19:26:06.118Z,14.03
2018-03-26T19:28:32.954Z,14.10
2018-03-26T19:30:58.995Z,14.80
2018-03-26T19:33:25.168Z,16.57
2018-03-26T19:35:51.283Z,16.10
2018-03-26T19:38:18.167Z,16.80
2018-03-26T19:40:44.199Z,16.20
2018-03-26T19:43:10.291Z,14.80
2018-03-26T19:45:36.348Z,15.43
2018-03-26T19:48:02.461Z,15.33
2018-03-26T19:50:28.528Z,15.13
2018-03-26T19:52:55.339Z,15.70
2018-03-26T19:55:21.348Z,14.63
2018-03-26T19:57:47.393Z,15.20
2018-03-26T20:00:13.463Z,14.63
2018-03-26T20:02:40.260Z,14.97
2018-03-26T20:05:07.067Z,14.10
2018-03-26T20:07:33.126Z,13.50
2018-03-26T20:09:59.216Z,15.00
2018-03-26T20:12:25.239Z,15.77
2018-03-26T20:14:51.279Z,15.07
2018-03-26T20:17:17.413Z,14.40
2018-03-26T20:19:43.457Z,14.70
2018-03-26T20:22:09.522Z,14.93
2018-03-26T20:24:35.556Z,14.73
2018-03-26T20:27:01.614Z,13.83
2018-03-26T20:29:27.671Z,16.33
2018-03-26T20:31:54.488Z,15.67
2018-03-26T20:34:20.523Z,14.83
2018-03-26T20:36:46.581Z,15.87
2018-03-26T20:39:12.664Z,15.67
2018-03-26T20:41:38.735Z,16.50
2018-03-26T20:44:04.816Z,16.47
2018-03-26T20:46:31.674Z,15.93
2018-03-26T20:48:58.542Z,18.20
2018-03-26T20:51:24.568Z,17.53
2018-03-26T20:53:51.362Z,16.00
2018-03-26T20:56:17.511Z,19.20
2018-03-26T20:58:43.551Z,18.00
2018-03-26T21:01:09.613Z,18.67
2018-03-26T21:03:35.663Z,18.93
2018-03-26T21:06:03.271Z,19.13
2018-03-26T21:08:29.397Z,19.30
2018-03-26T21:10:55.435Z,19.10
2018-03-26T21:13:21.485Z,19.30
2018-03-26T21:15:47.569Z,21.80
2018-03-26T21:18:13.636Z,21.30
2018-03-26T21:20:39.708Z,20.73
2018-03-26T21:23:05.755Z,20.53
2018-03-26T21:25:31.844Z,22.07
2018-03-26T21:27:57.895Z,20.10
2018-03-26T21:30:23.954Z,18.10
2018-03-26T21:32:50.053Z,17.67
2018-03-26T21:35:16.807Z,18.83
2018-03-26T21:37:43.604Z,19.23
2018-03-26T21:40:10.580Z,18.03
2018-03-26T21:42:36.595Z,16.87
2018-03-26T21:45:02.669Z,17.43
2018-03-26T21:47:28.832Z,19.73
2018-03-26T21:49:54.888Z,18.30
2018-03-26T21:52:20.916Z,18.80
2018-03-26T21:54:46.979Z,18.53
2018-03-26T21:57:13.279Z,19.30
2018-03-26T21:59:39.332Z,19.27
2018-03-26T22:02:05.400Z,18.60
2018-03-26T22:04:31.622Z,18.90
2018-03-26T22:06:57.666Z,19.67
2018-03-26T22:09:23.691Z,20.03
2018-03-26T22:11:49.771Z,21.90
2018-03-26T22:14:15.838Z,22.87
2018-03-26T22:16:41.862Z,21.47
2018-03-26T22:19:07.975Z,22.90
2018-03-26T22:21:34.019Z,21.50
2018-03-26T22:24:00.092Z,21.50
2018-03-26T22:26:26.158Z,21.73
2018-03-26T22:28:52.242Z,22.47
2018-03-26T22:31:18.291Z,21.77
2018-03-26T22:33:44.330Z,21.33
2018-03-26T22:36:10.361Z,20.40
2018-03-26T22:38:36.407Z,22.10
2018-03-26T22:41:03.256Z,20.60
2018-03-26T22:43:29.299Z,21.87
2018-03-26T22:45:56.085Z,22.07
2018-03-26T22:48:22.148Z,19.63
2018-03-26T22:50:48.208Z,19.10
2018-03-26T22:53:14.258Z,21.47
2018-03-26T22:55:40.309Z,23.23
2018-03-26T22:58:07.134Z,22.67
2018-03-26T23:00:33.222Z,20.13
2018-03-26T23:02:59.276Z,19.93
2018-03-26T23:05:25.367Z,20.07
2018-03-26T23:07:52.173Z,19.60
2018-03-26T23:10:18.230Z,19.57
2018-03-26T23:12:44.268Z,20.30
2018-03-26T23:15:10.313Z,20.50
2018-03-26T23:17:36.443Z,18.10
2018-03-26T23:20:02.639Z,18.10
2018-03-26T23:22:41.155Z,18.63
2018-03-26T23:25:07.198Z,17.80
2018-03-26T23:27:33.277Z,18.37
2018-03-26T23:29:59.322Z,20.03
2018-03-26T23:32:25.369Z,19.40
2018-03-26T23:34:51.451Z,18.90
2018-03-26T23:37:17.513Z,19.33
2018-03-26T23:39:43.593Z,18.13
2018-03-26T23:42:09.646Z,20.13
2018-03-26T23:44:36.460Z,20.73
2018-03-26T23:47:02.618Z,21.30
2018-03-26T23:49:28.657Z,23.00
2018-03-26T23:51:54.709Z,26.97
2018-03-26T23:54:20.760Z,26.00
2018-03-26T23:56:47.535Z,26.83
2018-03-26T23:59:13.609Z,25.23
